sensor_id;sensor_type;location;lat;lon;timestamp;pressure;altitude;pressure_sealevel;temperature;humidity
69667;BME280;66534;52.370;4.832;2023-05-22T00:00:10;101613.81;;;14.96;100.00
69667;BME280;66534;52.370;4.832;2023-05-22T00:00:42;101613.19;;;14.91;100.00
69667;BME280;66534;52.370;4.832;2023-05-22T00:01:13;101611.78;;;14.84;100.00
69667;BME280;66534;52.370;4.832;2023-05-22T00:01:45;101612.91;;;14.80;100.00
69667;BME280;66534;52.370;4.832;2023-05-22T00:02:18;101603.78;;;14.68;100.00
69667;BME280;66534;52.370;4.832;2023-05-22T00:02:48;101608.16;;;14.50;100.00
69667;BME280;66534;52.370;4.832;2023-05-22T00:03:19;101606.41;;;14.51;100.00
69667;BME280;66534;52.370;4.832;2023-05-22T00:03:53;101607.31;;;14.50;100.00
69667;BME280;66534;52.370;4.832;2023-05-22T00:04:23;101611.78;;;14.66;100.00
69667;BME280;66534;52.370;4.832;2023-05-22T00:04:58;101613.41;;;14.69;100.00
69667;BME280;66534;52.370;4.832;2023-05-22T00:05:29;101615.25;;;14.67;100.00
69667;BME280;66534;52.370;4.832;2023-05-22T00:06:00;101609.94;;;14.86;100.00
69667;BME280;66534;52.370;4.832;2023-05-22T00:06:30;101611.97;;;14.98;100.00
69667;BME280;66534;52.370;4.832;2023-05-22T00:07:03;101617.47;;;14.93;100.00
69667;BME280;66534;52.370;4.832;2023-05-22T00:07:33;101617.94;;;14.84;100.00
69667;BME280;66534;52.370;4.832;2023-05-22T00:08:04;101615.75;;;14.75;100.00
69667;BME280;66534;52.370;4.832;2023-05-22T00:08:35;101614.59;;;14.81;100.00
69667;BME280;66534;52.370;4.832;2023-05-22T00:09:06;101616.22;;;14.83;100.00
69667;BME280;66534;52.370;4.832;2023-05-22T00:09:36;101615.13;;;14.70;100.00
69667;BME280;66534;52.370;4.832;2023-05-22T00:10:06;101618.63;;;14.70;100.00
69667;BME280;66534;52.370;4.832;2023-05-22T00:10:37;101617.63;;;14.73;100.00
69667;BME280;66534;52.370;4.832;2023-05-22T00:11:08;101618.78;;;14.67;100.00
69667;BME280;66534;52.370;4.832;2023-05-22T00:11:38;101620.50;;;14.68;100.00
69667;BME280;66534;52.370;4.832;2023-05-22T00:12:09;101620.72;;;14.64;100.00
69667;BME280;66534;52.370;4.832;2023-05-22T00:12:39;101623.59;;;14.59;100.00
69667;BME280;66534;52.370;4.832;2023-05-22T00:13:10;101627.78;;;14.63;100.00
69667;BME280;66534;52.370;4.832;2023-05-22T00:13:40;101626.09;;;14.80;100.00
69667;BME280;66534;52.370;4.832;2023-05-22T00:14:11;101632.91;;;14.84;100.00
69667;BME280;66534;52.370;4.832;2023-05-22T00:14:42;101633.47;;;14.73;100.00
69667;BME280;66534;52.370;4.832;2023-05-22T00:15:13;101637.69;;;14.58;100.00
69667;BME280;66534;52.370;4.832;2023-05-22T00:15:43;101637.19;;;14.69;100.00
69667;BME280;66534;52.370;4.832;2023-05-22T00:16:13;101634.47;;;14.70;100.00
69667;BME280;66534;52.370;4.832;2023-05-22T00:16:44;101636.59;;;14.81;100.00
69667;BME280;66534;52.370;4.832;2023-05-22T00:17:17;101641.50;;;14.89;100.00
69667;BME280;66534;52.370;4.832;2023-05-22T00:17:48;101644.28;;;14.86;100.00
69667;BME280;66534;52.370;4.832;2023-05-22T00:18:18;101641.56;;;15.05;100.00
69667;BME280;66534;52.370;4.832;2023-05-22T00:18:49;101642.66;;;15.01;100.00
69667;BME280;66534;52.370;4.832;2023-05-22T00:19:19;101650.38;;;15.05;100.00
69667;BME280;66534;52.370;4.832;2023-05-22T00:19:52;101643.97;;;14.92;100.00
69667;BME280;66534;52.370;4.832;2023-05-22T00:20:24;101641.28;;;14.75;100.00
69667;BME280;66534;52.370;4.832;2023-05-22T00:20:55;101646.31;;;14.62;100.00
69667;BME280;66534;52.370;4.832;2023-05-22T00:21:26;101649.41;;;14.89;100.00
69667;BME280;66534;52.370;4.832;2023-05-22T00:21:57;101649.19;;;14.93;100.00
69667;BME280;66534;52.370;4.832;2023-05-22T00:22:27;101641.53;;;14.87;100.00
69667;BME280;66534;52.370;4.832;2023-05-22T00:23:00;101649.91;;;14.97;100.00
69667;BME280;66534;52.370;4.832;2023-05-22T00:23:32;101639.09;;;14.84;100.00
69667;BME280;66534;52.370;4.832;2023-05-22T00:24:03;101652.34;;;14.83;100.00
69667;BME280;66534;52.370;4.832;2023-05-22T00:24:34;101638.84;;;15.06;100.00
69667;BME280;66534;52.370;4.832;2023-05-22T00:25:05;101643.91;;;15.11;100.00
69667;BME280;66534;52.370;4.832;2023-05-22T00:25:36;101645.47;;;14.98;100.00
69667;BME280;66534;52.370;4.832;2023-05-22T00:26:07;101636.97;;;14.91;100.00
69667;BME280;66534;52.370;4.832;2023-05-22T00:26:37;101632.78;;;14.87;100.00
69667;BME280;66534;52.370;4.832;2023-05-22T00:27:08;101640.41;;;14.93;100.00
69667;BME280;66534;52.370;4.832;2023-05-22T00:27:38;101632.78;;;15.04;100.00
69667;BME280;66534;52.370;4.832;2023-05-22T00:28:10;101637.91;;;15.07;100.00
69667;BME280;66534;52.370;4.832;2023-05-22T00:28:41;101633.44;;;15.09;100.00
69667;BME280;66534;52.370;4.832;2023-05-22T00:29:12;101630.53;;;15.14;100.00
69667;BME280;66534;52.370;4.832;2023-05-22T00:29:42;101627.44;;;15.06;100.00
69667;BME280;66534;52.370;4.832;2023-05-22T00:30:12;101627.03;;;14.96;100.00
69667;BME280;66534;52.370;4.832;2023-05-22T00:30:43;101626.72;;;15.02;100.00
69667;BME280;66534;52.370;4.832;2023-05-22T00:31:13;101629.91;;;15.09;100.00
69667;BME280;66534;52.370;4.832;2023-05-22T00:31:44;101629.19;;;14.88;100.00
69667;BME280;66534;52.370;4.832;2023-05-22T00:32:14;101630.47;;;14.98;100.00
69667;BME280;66534;52.370;4.832;2023-05-22T00:32:45;101628.66;;;14.99;100.00
69667;BME280;66534;52.370;4.832;2023-05-22T00:33:15;101630.75;;;14.92;100.00
69667;BME280;66534;52.370;4.832;2023-05-22T00:33:46;101626.72;;;15.02;100.00
69667;BME280;66534;52.370;4.832;2023-05-22T00:34:16;101637.69;;;15.12;100.00
69667;BME280;66534;52.370;4.832;2023-05-22T00:34:46;101635.97;;;15.11;100.00
69667;BME280;66534;52.370;4.832;2023-05-22T00:35:17;101636.81;;;15.11;100.00
69667;BME280;66534;52.370;4.832;2023-05-22T00:35:47;101632.88;;;15.03;100.00
69667;BME280;66534;52.370;4.832;2023-05-22T00:36:18;101633.56;;;15.06;100.00
69667;BME280;66534;52.370;4.832;2023-05-22T00:36:48;101640.56;;;15.07;100.00
69667;BME280;66534;52.370;4.832;2023-05-22T00:37:18;101638.25;;;15.01;100.00
69667;BME280;66534;52.370;4.832;2023-05-22T00:37:49;101634.97;;;15.13;100.00
69667;BME280;66534;52.370;4.832;2023-05-22T00:38:26;101637.66;;;15.29;100.00
69667;BME280;66534;52.370;4.832;2023-05-22T00:39:01;101630.09;;;15.56;100.00
69667;BME280;66534;52.370;4.832;2023-05-22T00:39:32;101625.22;;;15.49;100.00
69667;BME280;66534;52.370;4.832;2023-05-22T00:40:02;101631.09;;;15.54;100.00
69667;BME280;66534;52.370;4.832;2023-05-22T00:40:34;101610.19;;;15.66;100.00
69667;BME280;66534;52.370;4.832;2023-05-22T00:41:05;101610.88;;;15.70;100.00
69667;BME280;66534;52.370;4.832;2023-05-22T00:41:35;101611.66;;;15.72;100.00
69667;BME280;66534;52.370;4.832;2023-05-22T00:42:07;101613.03;;;15.79;100.00
69667;BME280;66534;52.370;4.832;2023-05-22T00:42:37;101605.44;;;15.73;100.00
69667;BME280;66534;52.370;4.832;2023-05-22T00:43:08;101609.78;;;15.57;100.00
69667;BME280;66534;52.370;4.832;2023-05-22T00:43:38;101599.72;;;15.81;100.00
69667;BME280;66534;52.370;4.832;2023-05-22T00:44:09;101600.28;;;15.70;100.00
69667;BME280;66534;52.370;4.832;2023-05-22T00:44:40;101597.44;;;15.90;100.00
69667;BME280;66534;52.370;4.832;2023-05-22T00:45:12;101602.41;;;15.63;100.00
69667;BME280;66534;52.370;4.832;2023-05-22T00:45:45;101602.00;;;15.54;100.00
69667;BME280;66534;52.370;4.832;2023-05-22T00:46:16;101600.19;;;15.72;100.00
69667;BME280;66534;52.370;4.832;2023-05-22T00:46:50;101603.88;;;15.69;100.00
69667;BME280;66534;52.370;4.832;2023-05-22T00:47:20;101596.47;;;15.42;100.00
69667;BME280;66534;52.370;4.832;2023-05-22T00:47:52;101605.09;;;15.29;100.00
69667;BME280;66534;52.370;4.832;2023-05-22T00:48:23;101610.16;;;15.16;100.00
69667;BME280;66534;52.370;4.832;2023-05-22T00:48:54;101608.44;;;15.32;100.00
69667;BME280;66534;52.370;4.832;2023-05-22T00:49:24;101608.53;;;15.31;100.00
69667;BME280;66534;52.370;4.832;2023-05-22T00:49:55;101608.78;;;15.59;100.00
69667;BME280;66534;52.370;4.832;2023-05-22T00:50:25;101620.69;;;15.51;100.00
69667;BME280;66534;52.370;4.832;2023-05-22T00:50:56;101612.75;;;15.51;100.00
69667;BME280;66534;52.370;4.832;2023-05-22T00:51:26;101611.50;;;15.58;100.00
69667;BME280;66534;52.370;4.832;2023-05-22T00:51:57;101614.13;;;15.25;100.00
69667;BME280;66534;52.370;4.832;2023-05-22T00:52:28;101622.91;;;15.42;100.00
69667;BME280;66534;52.370;4.832;2023-05-22T00:52:59;101615.78;;;15.60;100.00
69667;BME280;66534;52.370;4.832;2023-05-22T00:53:30;101619.53;;;15.56;100.00
69667;BME280;66534;52.370;4.832;2023-05-22T00:54:00;101612.41;;;15.74;100.00
69667;BME280;66534;52.370;4.832;2023-05-22T00:54:31;101613.13;;;15.78;100.00
69667;BME280;66534;52.370;4.832;2023-05-22T00:55:02;101614.22;;;15.56;100.00
69667;BME280;66534;52.370;4.832;2023-05-22T00:55:33;101609.28;;;15.67;100.00
69667;BME280;66534;52.370;4.832;2023-05-22T00:56:03;101609.19;;;15.69;100.00
69667;BME280;66534;52.370;4.832;2023-05-22T00:56:34;101609.44;;;15.64;100.00
69667;BME280;66534;52.370;4.832;2023-05-22T00:57:05;101610.66;;;15.57;100.00
69667;BME280;66534;52.370;4.832;2023-05-22T00:57:36;101612.16;;;15.45;100.00
69667;BME280;66534;52.370;4.832;2023-05-22T00:58:14;101616.91;;;15.39;100.00
69667;BME280;66534;52.370;4.832;2023-05-22T00:58:46;101614.53;;;15.50;100.00
69667;BME280;66534;52.370;4.832;2023-05-22T00:59:17;101605.94;;;15.29;100.00
69667;BME280;66534;52.370;4.832;2023-05-22T00:59:48;101609.16;;;15.18;100.00
69667;BME280;66534;52.370;4.832;2023-05-22T01:00:19;101612.44;;;15.06;100.00
69667;BME280;66534;52.370;4.832;2023-05-22T01:00:50;101609.63;;;15.27;100.00
69667;BME280;66534;52.370;4.832;2023-05-22T01:01:21;101613.56;;;15.35;100.00
69667;BME280;66534;52.370;4.832;2023-05-22T01:01:52;101612.50;;;15.22;100.00
69667;BME280;66534;52.370;4.832;2023-05-22T01:02:23;101612.81;;;15.16;100.00
69667;BME280;66534;52.370;4.832;2023-05-22T01:02:53;101615.50;;;15.32;100.00
69667;BME280;66534;52.370;4.832;2023-05-22T01:03:24;101611.69;;;15.37;100.00
69667;BME280;66534;52.370;4.832;2023-05-22T01:03:59;101611.91;;;15.50;100.00
69667;BME280;66534;52.370;4.832;2023-05-22T01:04:30;101612.53;;;15.38;100.00
69667;BME280;66534;52.370;4.832;2023-05-22T01:05:02;101608.69;;;15.28;100.00
69667;BME280;66534;52.370;4.832;2023-05-22T01:05:36;101603.84;;;15.36;100.00
69667;BME280;66534;52.370;4.832;2023-05-22T01:06:07;101603.97;;;15.50;100.00
69667;BME280;66534;52.370;4.832;2023-05-22T01:06:37;101609.00;;;15.55;100.00
69667;BME280;66534;52.370;4.832;2023-05-22T01:07:10;101616.28;;;15.51;100.00
69667;BME280;66534;52.370;4.832;2023-05-22T01:07:40;101623.44;;;15.32;100.00
69667;BME280;66534;52.370;4.832;2023-05-22T01:08:11;101630.94;;;15.06;100.00
69667;BME280;66534;52.370;4.832;2023-05-22T01:08:41;101632.88;;;15.03;100.00
69667;BME280;66534;52.370;4.832;2023-05-22T01:09:12;101626.97;;;15.15;100.00
69667;BME280;66534;52.370;4.832;2023-05-22T01:09:43;101614.91;;;15.27;100.00
69667;BME280;66534;52.370;4.832;2023-05-22T01:10:14;101613.03;;;15.29;100.00
69667;BME280;66534;52.370;4.832;2023-05-22T01:10:44;101612.09;;;15.30;100.00
69667;BME280;66534;52.370;4.832;2023-05-22T01:11:17;101610.31;;;15.30;100.00
69667;BME280;66534;52.370;4.832;2023-05-22T01:11:58;101613.84;;;15.13;100.00
69667;BME280;66534;52.370;4.832;2023-05-22T01:13:41;101622.75;;;15.11;100.00
69667;BME280;66534;52.370;4.832;2023-05-22T01:14:47;101613.50;;;15.02;100.00
69667;BME280;66534;52.370;4.832;2023-05-22T01:16:49;101603.09;;;14.99;100.00
69667;BME280;66534;52.370;4.832;2023-05-22T01:18:34;101607.38;;;15.19;100.00
69667;BME280;66534;52.370;4.832;2023-05-22T01:21:12;101608.34;;;15.34;100.00
69667;BME280;66534;52.370;4.832;2023-05-22T01:24:20;101590.28;;;15.26;100.00
69667;BME280;66534;52.370;4.832;2023-05-22T01:27:21;101573.53;;;15.26;100.00
69667;BME280;66534;52.370;4.832;2023-05-22T01:29:14;101573.53;;;15.26;100.00
69667;BME280;66534;52.370;4.832;2023-05-22T01:31:16;101558.06;;;15.35;100.00
69667;BME280;66534;52.370;4.832;2023-05-22T01:31:58;101560.69;;;15.35;100.00
69667;BME280;66534;52.370;4.832;2023-05-22T01:32:31;101559.59;;;15.39;100.00
69667;BME280;66534;52.370;4.832;2023-05-22T01:33:05;101557.06;;;15.20;100.00
69667;BME280;66534;52.370;4.832;2023-05-22T01:33:42;101561.66;;;15.34;100.00
69667;BME280;66534;52.370;4.832;2023-05-22T01:34:17;101561.44;;;15.22;100.00
69667;BME280;66534;52.370;4.832;2023-05-22T01:34:53;101560.69;;;15.35;100.00
69667;BME280;66534;52.370;4.832;2023-05-22T01:35:28;101556.56;;;15.47;100.00
69667;BME280;66534;52.370;4.832;2023-05-22T01:36:00;101554.66;;;15.49;100.00
69667;BME280;66534;52.370;4.832;2023-05-22T01:36:33;101555.72;;;15.62;100.00
69667;BME280;66534;52.370;4.832;2023-05-22T01:37:05;101558.28;;;15.64;100.00
69667;BME280;66534;52.370;4.832;2023-05-22T01:37:37;101552.69;;;15.37;100.00
69667;BME280;66534;52.370;4.832;2023-05-22T01:38:08;101545.94;;;15.31;100.00
69667;BME280;66534;52.370;4.832;2023-05-22T01:38:40;101553.56;;;15.20;100.00
69667;BME280;66534;52.370;4.832;2023-05-22T01:39:12;101547.97;;;15.09;100.00
69667;BME280;66534;52.370;4.832;2023-05-22T01:39:43;101548.72;;;14.95;100.00
69667;BME280;66534;52.370;4.832;2023-05-22T01:40:15;101544.03;;;14.83;100.00
69667;BME280;66534;52.370;4.832;2023-05-22T01:40:47;101545.31;;;14.93;100.00
69667;BME280;66534;52.370;4.832;2023-05-22T01:41:18;101547.72;;;14.98;100.00
69667;BME280;66534;52.370;4.832;2023-05-22T01:41:50;101543.19;;;15.00;100.00
69667;BME280;66534;52.370;4.832;2023-05-22T01:42:21;101534.19;;;14.86;100.00
69667;BME280;66534;52.370;4.832;2023-05-22T01:42:52;101544.50;;;14.91;100.00
69667;BME280;66534;52.370;4.832;2023-05-22T01:43:22;101537.63;;;14.88;100.00
69667;BME280;66534;52.370;4.832;2023-05-22T01:43:53;101536.72;;;14.88;100.00
69667;BME280;66534;52.370;4.832;2023-05-22T01:44:23;101538.72;;;14.84;100.00
69667;BME280;66534;52.370;4.832;2023-05-22T01:44:54;101536.22;;;14.64;100.00
69667;BME280;66534;52.370;4.832;2023-05-22T01:45:24;101536.59;;;14.56;100.00
69667;BME280;66534;52.370;4.832;2023-05-22T01:45:55;101533.03;;;14.57;100.00
69667;BME280;66534;52.370;4.832;2023-05-22T01:46:28;101533.03;;;14.57;100.00
69667;BME280;66534;52.370;4.832;2023-05-22T01:47:00;101531.41;;;14.72;100.00
69667;BME280;66534;52.370;4.832;2023-05-22T01:47:34;101529.63;;;14.73;100.00
69667;BME280;66534;52.370;4.832;2023-05-22T01:48:04;101527.50;;;14.79;100.00
69667;BME280;66534;52.370;4.832;2023-05-22T01:48:35;101524.81;;;14.81;100.00
69667;BME280;66534;52.370;4.832;2023-05-22T01:49:05;101527.09;;;14.87;100.00
69667;BME280;66534;52.370;4.832;2023-05-22T01:49:38;101530.78;;;14.84;100.00
69667;BME280;66534;52.370;4.832;2023-05-22T01:50:08;101526.72;;;14.94;100.00
69667;BME280;66534;52.370;4.832;2023-05-22T01:50:40;101529.66;;;15.06;100.00
69667;BME280;66534;52.370;4.832;2023-05-22T01:51:12;101528.19;;;14.83;100.00
69667;BME280;66534;52.370;4.832;2023-05-22T01:51:51;101537.84;;;15.01;100.00
69667;BME280;66534;52.370;4.832;2023-05-22T01:52:28;101530.72;;;15.19;100.00
69667;BME280;66534;52.370;4.832;2023-05-22T01:53:29;101530.50;;;15.06;100.00
69667;BME280;66534;52.370;4.832;2023-05-22T01:54:11;101529.91;;;14.84;100.00
69667;BME280;66534;52.370;4.832;2023-05-22T01:54:50;101532.09;;;14.93;100.00
69667;BME280;66534;52.370;4.832;2023-05-22T01:56:40;101530.38;;;14.75;100.00
69667;BME280;66534;52.370;4.832;2023-05-22T01:57:18;101525.50;;;14.84;100.00
69667;BME280;66534;52.370;4.832;2023-05-22T01:57:59;101525.09;;;14.75;100.00
69667;BME280;66534;52.370;4.832;2023-05-22T01:58:43;101529.75;;;14.69;100.00
69667;BME280;66534;52.370;4.832;2023-05-22T01:59:32;101528.59;;;14.75;100.00
69667;BME280;66534;52.370;4.832;2023-05-22T02:00:09;101526.59;;;14.80;100.00
69667;BME280;66534;52.370;4.832;2023-05-22T02:00:45;101533.25;;;14.87;100.00
69667;BME280;66534;52.370;4.832;2023-05-22T02:01:18;101529.91;;;14.84;100.00
69667;BME280;66534;52.370;4.832;2023-05-22T02:01:51;101527.44;;;14.81;100.00
69667;BME280;66534;52.370;4.832;2023-05-22T02:02:24;101524.63;;;14.66;100.00
69667;BME280;66534;52.370;4.832;2023-05-22T02:03:02;101534.50;;;14.80;100.00
69667;BME280;66534;52.370;4.832;2023-05-22T02:03:36;101523.09;;;14.80;100.00
69667;BME280;66534;52.370;4.832;2023-05-22T02:04:08;101518.03;;;14.75;100.00
69667;BME280;66534;52.370;4.832;2023-05-22T02:04:41;101523.94;;;14.80;100.00
69667;BME280;66534;52.370;4.832;2023-05-22T02:05:15;101512.44;;;14.81;100.00
69667;BME280;66534;52.370;4.832;2023-05-22T02:05:51;101516.53;;;14.87;100.00
69667;BME280;66534;52.370;4.832;2023-05-22T02:06:24;101510.44;;;15.19;100.00
69667;BME280;66534;52.370;4.832;2023-05-22T02:06:58;101514.25;;;15.14;100.00
69667;BME280;66534;52.370;4.832;2023-05-22T02:07:31;101511.22;;;15.04;100.00
69667;BME280;66534;52.370;4.832;2023-05-22T02:08:03;101508.19;;;15.12;100.00
69667;BME280;66534;52.370;4.832;2023-05-22T02:08:36;101510.22;;;15.07;100.00
69667;BME280;66534;52.370;4.832;2023-05-22T02:09:08;101512.16;;;15.03;100.00
69667;BME280;66534;52.370;4.832;2023-05-22T02:09:40;101500.16;;;14.98;100.00
69667;BME280;66534;52.370;4.832;2023-05-22T02:10:14;101506.03;;;15.03;100.00
69667;BME280;66534;52.370;4.832;2023-05-22T02:10:46;101500.66;;;15.04;100.00
69667;BME280;66534;52.370;4.832;2023-05-22T02:11:19;101489.84;;;15.09;100.00
69667;BME280;66534;52.370;4.832;2023-05-22T02:11:51;101492.50;;;15.09;100.00
69667;BME280;66534;52.370;4.832;2023-05-22T02:12:22;101491.97;;;15.02;100.00
69667;BME280;66534;52.370;4.832;2023-05-22T02:12:53;101493.78;;;15.02;100.00
69667;BME280;66534;52.370;4.832;2023-05-22T02:13:24;101492.50;;;15.09;100.00
69667;BME280;66534;52.370;4.832;2023-05-22T02:13:55;101494.38;;;15.07;100.00
69667;BME280;66534;52.370;4.832;2023-05-22T02:14:26;101491.25;;;15.16;100.00
69667;BME280;66534;52.370;4.832;2023-05-22T02:14:59;101490.09;;;15.04;100.00
69667;BME280;66534;52.370;4.832;2023-05-22T02:15:29;101491.25;;;15.16;100.00
69667;BME280;66534;52.370;4.832;2023-05-22T02:16:00;101489.63;;;15.13;100.00
69667;BME280;66534;52.370;4.832;2023-05-22T02:16:30;101488.09;;;15.09;100.00
69667;BME280;66534;52.370;4.832;2023-05-22T02:17:01;101489.19;;;15.05;100.00
69667;BME280;66534;52.370;4.832;2023-05-22T02:17:38;101489.88;;;15.25;100.00
69667;BME280;66534;52.370;4.832;2023-05-22T02:18:13;101497.63;;;15.12;100.00
69667;BME280;66534;52.370;4.832;2023-05-22T02:18:43;101494.47;;;15.05;100.00
69667;BME280;66534;52.370;4.832;2023-05-22T02:19:14;101494.91;;;15.13;100.00
69667;BME280;66534;52.370;4.832;2023-05-22T02:19:44;101495.22;;;15.07;100.00
69667;BME280;66534;52.370;4.832;2023-05-22T02:20:15;101487.88;;;14.97;100.00
69667;BME280;66534;52.370;4.832;2023-05-22T02:20:45;101496.22;;;14.72;100.00
69667;BME280;66534;52.370;4.832;2023-05-22T02:21:16;101495.75;;;14.81;100.00
69667;BME280;66534;52.370;4.832;2023-05-22T02:21:46;101496.00;;;14.76;100.00
69667;BME280;66534;52.370;4.832;2023-05-22T02:22:16;101494.34;;;14.56;100.00
69667;BME280;66534;52.370;4.832;2023-05-22T02:22:47;101491.56;;;14.59;100.00
69667;BME280;66534;52.370;4.832;2023-05-22T02:23:17;101498.06;;;14.69;100.00
69667;BME280;66534;52.370;4.832;2023-05-22T02:23:48;101501.25;;;14.93;100.00
69667;BME280;66534;52.370;4.832;2023-05-22T02:24:18;101494.78;;;14.99;100.00
69667;BME280;66534;52.370;4.832;2023-05-22T02:24:49;101496.28;;;15.20;100.00
69667;BME280;66534;52.370;4.832;2023-05-22T02:25:20;101495.31;;;15.06;100.00
69667;BME280;66534;52.370;4.832;2023-05-22T02:25:50;101505.59;;;14.94;100.00
69667;BME280;66534;52.370;4.832;2023-05-22T02:26:21;101500.00;;;14.83;100.00
69667;BME280;66534;52.370;4.832;2023-05-22T02:26:52;101500.00;;;15.01;100.00
69667;BME280;66534;52.370;4.832;2023-05-22T02:27:22;101499.25;;;15.14;100.00
69667;BME280;66534;52.370;4.832;2023-05-22T02:27:52;101499.00;;;15.19;100.00
69667;BME280;66534;52.370;4.832;2023-05-22T02:28:23;101496.66;;;15.30;100.00
69667;BME280;66534;52.370;4.832;2023-05-22T02:28:53;101488.25;;;15.55;100.00
69667;BME280;66534;52.370;4.832;2023-05-22T02:29:23;101490.44;;;15.63;100.00
69667;BME280;66534;52.370;4.832;2023-05-22T02:29:54;101490.00;;;15.72;100.00
69667;BME280;66534;52.370;4.832;2023-05-22T02:30:24;101484.25;;;15.64;100.00
69667;BME280;66534;52.370;4.832;2023-05-22T02:30:55;101489.91;;;15.40;100.00
69667;BME280;66534;52.370;4.832;2023-05-22T02:31:25;101489.78;;;15.10;100.00
69667;BME280;66534;52.370;4.832;2023-05-22T02:31:55;101491.09;;;15.19;100.00
69667;BME280;66534;52.370;4.832;2023-05-22T02:32:26;101488.13;;;15.41;100.00
69667;BME280;66534;52.370;4.832;2023-05-22T02:32:57;101484.13;;;15.50;100.00
69667;BME280;66534;52.370;4.832;2023-05-22T02:33:29;101475.75;;;15.41;100.00
69667;BME280;66534;52.370;4.832;2023-05-22T02:33:59;101483.44;;;15.46;100.00
69667;BME280;66534;52.370;4.832;2023-05-22T02:34:30;101486.19;;;15.44;100.00
69667;BME280;66534;52.370;4.832;2023-05-22T02:35:01;101487.03;;;15.45;100.00
69667;BME280;66534;52.370;4.832;2023-05-22T02:35:32;101480.59;;;15.33;100.00
69667;BME280;66534;52.370;4.832;2023-05-22T02:36:02;101480.59;;;15.33;100.00
69667;BME280;66534;52.370;4.832;2023-05-22T02:36:33;101473.38;;;15.53;100.00
69667;BME280;66534;52.370;4.832;2023-05-22T02:37:03;101477.66;;;15.55;100.00
69667;BME280;66534;52.370;4.832;2023-05-22T02:37:34;101482.22;;;15.20;100.00
69667;BME280;66534;52.370;4.832;2023-05-22T02:38:04;101483.06;;;15.20;100.00
69667;BME280;66534;52.370;4.832;2023-05-22T02:38:35;101479.56;;;15.20;100.00
69667;BME280;66534;52.370;4.832;2023-05-22T02:39:06;101486.28;;;15.43;100.00
69667;BME280;66534;52.370;4.832;2023-05-22T02:39:36;101470.94;;;15.65;100.00
69667;BME280;66534;52.370;4.832;2023-05-22T02:40:07;101477.94;;;15.82;100.00
69667;BME280;66534;52.370;4.832;2023-05-22T02:40:38;101471.13;;;15.78;100.00
69667;BME280;66534;52.370;4.832;2023-05-22T02:41:09;101477.00;;;15.83;100.00
69667;BME280;66534;52.370;4.832;2023-05-22T02:41:39;101477.03;;;15.67;100.00
69667;BME280;66534;52.370;4.832;2023-05-22T02:42:10;101475.03;;;15.87;100.00
69667;BME280;66534;52.370;4.832;2023-05-22T02:42:40;101479.22;;;15.91;100.00
69667;BME280;66534;52.370;4.832;2023-05-22T02:43:10;101475.97;;;15.86;100.00
69667;BME280;66534;52.370;4.832;2023-05-22T02:43:41;101477.41;;;15.91;100.00
69667;BME280;66534;52.370;4.832;2023-05-22T02:44:11;101481.00;;;15.90;100.00
69667;BME280;66534;52.370;4.832;2023-05-22T02:44:42;101478.78;;;15.99;100.00
69667;BME280;66534;52.370;4.832;2023-05-22T02:45:12;101473.75;;;15.94;100.00
69667;BME280;66534;52.370;4.832;2023-05-22T02:45:42;101475.97;;;15.86;100.00
69667;BME280;66534;52.370;4.832;2023-05-22T02:46:13;101481.22;;;15.54;100.00
69667;BME280;66534;52.370;4.832;2023-05-22T02:46:43;101477.81;;;15.36;100.00
69667;BME280;66534;52.370;4.832;2023-05-22T02:47:14;101473.97;;;15.26;100.00
69667;BME280;66534;52.370;4.832;2023-05-22T02:47:45;101479.91;;;15.30;100.00
69667;BME280;66534;52.370;4.832;2023-05-22T02:48:15;101482.91;;;15.24;100.00
69667;BME280;66534;52.370;4.832;2023-05-22T02:48:45;101484.56;;;15.09;100.00
69667;BME280;66534;52.370;4.832;2023-05-22T02:49:16;101480.91;;;15.11;100.00
69667;BME280;66534;52.370;4.832;2023-05-22T02:49:46;101482.84;;;15.41;100.00
69667;BME280;66534;52.370;4.832;2023-05-22T02:50:16;101473.97;;;15.58;100.00
69667;BME280;66534;52.370;4.832;2023-05-22T02:50:47;101468.56;;;15.77;100.00
69667;BME280;66534;52.370;4.832;2023-05-22T02:51:18;101479.66;;;15.67;100.00
69667;BME280;66534;52.370;4.832;2023-05-22T02:51:48;101477.31;;;15.61;100.00
69667;BME280;66534;52.370;4.832;2023-05-22T02:52:18;101476.25;;;15.65;100.00
69667;BME280;66534;52.370;4.832;2023-05-22T02:52:49;101474.94;;;15.57;100.00
69667;BME280;66534;52.370;4.832;2023-05-22T02:53:20;101478.22;;;15.29;100.00
69667;BME280;66534;52.370;4.832;2023-05-22T02:53:51;101474.72;;;15.28;100.00
69667;BME280;66534;52.370;4.832;2023-05-22T02:54:22;101474.22;;;15.37;100.00
69667;BME280;66534;52.370;4.832;2023-05-22T02:54:52;101468.31;;;15.65;100.00
69667;BME280;66534;52.370;4.832;2023-05-22T02:55:23;101469.25;;;15.80;100.00
69667;BME280;66534;52.370;4.832;2023-05-22T02:55:53;101466.50;;;15.66;100.00
69667;BME280;66534;52.370;4.832;2023-05-22T02:56:27;101465.47;;;15.53;100.00
69667;BME280;66534;52.370;4.832;2023-05-22T02:56:58;101469.03;;;15.52;100.00
69667;BME280;66534;52.370;4.832;2023-05-22T02:57:28;101465.25;;;15.73;100.00
69667;BME280;66534;52.370;4.832;2023-05-22T02:57:59;101465.97;;;15.91;100.00
69667;BME280;66534;52.370;4.832;2023-05-22T02:58:29;101470.16;;;15.79;100.00
69667;BME280;66534;52.370;4.832;2023-05-22T02:58:59;101469.97;;;15.35;100.00
69667;BME280;66534;52.370;4.832;2023-05-22T02:59:30;101470.53;;;14.91;100.00